Socorro, Brazil
Current Conditions -  °F | °C
As of 8:12 AM on Wednesday 26 Nov 2014 (Local Time) from SBKP Reporting Station
Light Rain Light Rain  
Wind Chill: 70°   Ceiling: 500
Heat Index: 70°   Visibility: 2.8mi
Dew Point: 68°   Wind: 10mph
Humidity: 94%   Direction: 20°NNE
Pressure: 29.85"   Gusts: NA
Location:  22.59°S, 46.53°W
Report Text: SBKP 261012Z 02009KT 4500 -RA BR BKN005 SCT015 21/20 Q1011
Loading
Personal Weather Stations






























Interactive Weather Map New forecast layout! Learn more

10-Day Weather Forecast

Advertisements
Track Severe Weather on mobile